sensor_id;sensor_type;location;lat;lon;timestamp;P1;durP1;ratioP1;P2;durP2;ratioP2
16385;SDS011;8302;51.154;4.456;2022-10-04T00:01:21;10.50;;;5.97;;
16385;SDS011;8302;51.154;4.456;2022-10-04T00:03:51;10.43;;;5.90;;
16385;SDS011;8302;51.154;4.456;2022-10-04T00:06:21;8.95;;;5.95;;
16385;SDS011;8302;51.154;4.456;2022-10-04T00:08:50;6.95;;;4.90;;
16385;SDS011;8302;51.154;4.456;2022-10-04T00:11:21;9.57;;;5.22;;
16385;SDS011;8302;51.154;4.456;2022-10-04T00:13:52;7.32;;;4.60;;
16385;SDS011;8302;51.154;4.456;2022-10-04T00:16:22;6.97;;;4.78;;
16385;SDS011;8302;51.154;4.456;2022-10-04T00:19:00;7.90;;;4.57;;
16385;SDS011;8302;51.154;4.456;2022-10-04T00:24:18;8.38;;;5.60;;
16385;SDS011;8302;51.154;4.456;2022-10-04T00:29:36;9.68;;;4.78;;
16385;SDS011;8302;51.154;4.456;2022-10-04T00:32:23;8.25;;;4.93;;
16385;SDS011;8302;51.154;4.456;2022-10-04T00:34:54;10.23;;;5.13;;
16385;SDS011;8302;51.154;4.456;2022-10-04T00:37:23;7.35;;;4.53;;
16385;SDS011;8302;51.154;4.456;2022-10-04T00:39:59;9.75;;;5.32;;
16385;SDS011;8302;51.154;4.456;2022-10-04T00:42:31;7.03;;;4.63;;
16385;SDS011;8302;51.154;4.456;2022-10-04T00:45:02;7.85;;;4.65;;
16385;SDS011;8302;51.154;4.456;2022-10-04T00:47:33;10.25;;;5.18;;
16385;SDS011;8302;51.154;4.456;2022-10-04T00:50:06;7.90;;;4.57;;
16385;SDS011;8302;51.154;4.456;2022-10-04T00:52:39;10.57;;;5.78;;
16385;SDS011;8302;51.154;4.456;2022-10-04T00:55:09;6.43;;;4.95;;
16385;SDS011;8302;51.154;4.456;2022-10-04T00:57:44;7.20;;;4.80;;
16385;SDS011;8302;51.154;4.456;2022-10-04T01:00:14;10.00;;;4.75;;
16385;SDS011;8302;51.154;4.456;2022-10-04T01:02:45;6.60;;;4.05;;
16385;SDS011;8302;51.154;4.456;2022-10-04T01:05:19;7.82;;;4.68;;
16385;SDS011;8302;51.154;4.456;2022-10-04T01:07:50;9.52;;;4.68;;
16385;SDS011;8302;51.154;4.456;2022-10-04T01:10:20;9.43;;;4.30;;
16385;SDS011;8302;51.154;4.456;2022-10-04T01:12:49;6.95;;;4.50;;
16385;SDS011;8302;51.154;4.456;2022-10-04T01:15:21;7.28;;;4.53;;
16385;SDS011;8302;51.154;4.456;2022-10-04T01:18:08;5.70;;;3.97;;
16385;SDS011;8302;51.154;4.456;2022-10-04T01:20:38;7.82;;;4.72;;
16385;SDS011;8302;51.154;4.456;2022-10-04T01:23:09;8.05;;;4.40;;
16385;SDS011;8302;51.154;4.456;2022-10-04T01:25:47;11.02;;;5.25;;
16385;SDS011;8302;51.154;4.456;2022-10-04T01:28:15;7.15;;;4.30;;
16385;SDS011;8302;51.154;4.456;2022-10-04T01:30:43;7.03;;;4.20;;
16385;SDS011;8302;51.154;4.456;2022-10-04T01:33:11;9.00;;;4.10;;
16385;SDS011;8302;51.154;4.456;2022-10-04T01:35:39;9.88;;;5.05;;
16385;SDS011;8302;51.154;4.456;2022-10-04T01:38:06;6.43;;;4.20;;
16385;SDS011;8302;51.154;4.456;2022-10-04T01:40:37;9.75;;;4.65;;
16385;SDS011;8302;51.154;4.456;2022-10-04T01:43:06;6.55;;;4.30;;
16385;SDS011;8302;51.154;4.456;2022-10-04T01:45:36;10.52;;;5.00;;
16385;SDS011;8302;51.154;4.456;2022-10-04T01:48:08;7.07;;;4.15;;
16385;SDS011;8302;51.154;4.456;2022-10-04T01:50:38;5.95;;;4.65;;
16385;SDS011;8302;51.154;4.456;2022-10-04T01:53:09;7.50;;;4.40;;
16385;SDS011;8302;51.154;4.456;2022-10-04T01:55:40;5.15;;;4.10;;
16385;SDS011;8302;51.154;4.456;2022-10-04T01:58:09;11.68;;;4.80;;
16385;SDS011;8302;51.154;4.456;2022-10-04T02:00:42;5.47;;;4.20;;
16385;SDS011;8302;51.154;4.456;2022-10-04T02:03:13;6.07;;;4.10;;
16385;SDS011;8302;51.154;4.456;2022-10-04T02:05:43;8.32;;;4.80;;
16385;SDS011;8302;51.154;4.456;2022-10-04T02:08:14;7.05;;;4.85;;
16385;SDS011;8302;51.154;4.456;2022-10-04T02:10:45;7.95;;;4.32;;
16385;SDS011;8302;51.154;4.456;2022-10-04T02:13:15;10.30;;;4.15;;
16385;SDS011;8302;51.154;4.456;2022-10-04T02:15:44;6.88;;;4.20;;
16385;SDS011;8302;51.154;4.456;2022-10-04T02:18:13;7.00;;;4.50;;
16385;SDS011;8302;51.154;4.456;2022-10-04T02:20:42;7.15;;;4.28;;
16385;SDS011;8302;51.154;4.456;2022-10-04T02:23:11;7.50;;;4.45;;
16385;SDS011;8302;51.154;4.456;2022-10-04T02:25:39;9.63;;;4.88;;
16385;SDS011;8302;51.154;4.456;2022-10-04T02:28:09;5.80;;;4.22;;
16385;SDS011;8302;51.154;4.456;2022-10-04T02:30:40;6.07;;;3.97;;
16385;SDS011;8302;51.154;4.456;2022-10-04T02:33:08;9.45;;;4.13;;
16385;SDS011;8302;51.154;4.456;2022-10-04T02:35:36;8.32;;;4.45;;
16385;SDS011;8302;51.154;4.456;2022-10-04T02:38:06;6.50;;;3.80;;
16385;SDS011;8302;51.154;4.456;2022-10-04T02:40:37;5.07;;;4.30;;
16385;SDS011;8302;51.154;4.456;2022-10-04T02:43:09;6.75;;;4.35;;
16385;SDS011;8302;51.154;4.456;2022-10-04T02:45:40;7.85;;;4.38;;
16385;SDS011;8302;51.154;4.456;2022-10-04T02:48:11;8.23;;;4.85;;
16385;SDS011;8302;51.154;4.456;2022-10-04T02:50:43;6.50;;;4.88;;
16385;SDS011;8302;51.154;4.456;2022-10-04T02:53:15;8.95;;;4.45;;
16385;SDS011;8302;51.154;4.456;2022-10-04T02:55:45;9.63;;;4.20;;
16385;SDS011;8302;51.154;4.456;2022-10-04T02:58:15;5.25;;;4.05;;
16385;SDS011;8302;51.154;4.456;2022-10-04T03:00:45;7.63;;;4.30;;
16385;SDS011;8302;51.154;4.456;2022-10-04T03:03:18;8.27;;;4.18;;
16385;SDS011;8302;51.154;4.456;2022-10-04T03:05:56;8.30;;;4.22;;
16385;SDS011;8302;51.154;4.456;2022-10-04T03:08:24;7.85;;;4.32;;
16385;SDS011;8302;51.154;4.456;2022-10-04T03:10:53;10.07;;;4.32;;
16385;SDS011;8302;51.154;4.456;2022-10-04T03:13:22;6.68;;;4.18;;
16385;SDS011;8302;51.154;4.456;2022-10-04T03:15:50;5.00;;;4.35;;
16385;SDS011;8302;51.154;4.456;2022-10-04T03:18:18;7.95;;;4.05;;
16385;SDS011;8302;51.154;4.456;2022-10-04T03:20:46;5.90;;;4.13;;
16385;SDS011;8302;51.154;4.456;2022-10-04T03:23:14;8.57;;;4.47;;
16385;SDS011;8302;51.154;4.456;2022-10-04T03:25:45;8.30;;;4.50;;
16385;SDS011;8302;51.154;4.456;2022-10-04T03:28:15;8.93;;;4.68;;
16385;SDS011;8302;51.154;4.456;2022-10-04T03:30:45;5.72;;;4.20;;
16385;SDS011;8302;51.154;4.456;2022-10-04T03:33:18;7.88;;;4.60;;
16385;SDS011;8302;51.154;4.456;2022-10-04T03:35:47;10.02;;;4.38;;
16385;SDS011;8302;51.154;4.456;2022-10-04T03:38:16;6.20;;;4.45;;
16385;SDS011;8302;51.154;4.456;2022-10-04T03:40:46;4.35;;;3.88;;
16385;SDS011;8302;51.154;4.456;2022-10-04T03:43:16;9.63;;;5.38;;
16385;SDS011;8302;51.154;4.456;2022-10-04T03:45:46;6.50;;;4.68;;
16385;SDS011;8302;51.154;4.456;2022-10-04T03:48:15;6.65;;;4.07;;
16385;SDS011;8302;51.154;4.456;2022-10-04T03:50:46;6.22;;;4.40;;
16385;SDS011;8302;51.154;4.456;2022-10-04T03:53:14;8.07;;;4.40;;
16385;SDS011;8302;51.154;4.456;2022-10-04T03:55:45;5.95;;;4.30;;
16385;SDS011;8302;51.154;4.456;2022-10-04T03:58:13;10.52;;;4.75;;
16385;SDS011;8302;51.154;4.456;2022-10-04T04:00:43;7.97;;;4.70;;
16385;SDS011;8302;51.154;4.456;2022-10-04T04:03:14;9.32;;;4.70;;
16385;SDS011;8302;51.154;4.456;2022-10-04T04:05:43;4.93;;;4.43;;
16385;SDS011;8302;51.154;4.456;2022-10-04T04:08:15;8.60;;;4.15;;
16385;SDS011;8302;51.154;4.456;2022-10-04T04:10:45;6.78;;;3.97;;
16385;SDS011;8302;51.154;4.456;2022-10-04T04:13:17;7.55;;;4.63;;
16385;SDS011;8302;51.154;4.456;2022-10-04T04:15:47;6.22;;;4.60;;
16385;SDS011;8302;51.154;4.456;2022-10-04T04:18:17;8.73;;;4.88;;
16385;SDS011;8302;51.154;4.456;2022-10-04T04:20:45;6.55;;;4.53;;
16385;SDS011;8302;51.154;4.456;2022-10-04T04:23:16;7.05;;;4.38;;
16385;SDS011;8302;51.154;4.456;2022-10-04T04:25:48;8.55;;;4.88;;
16385;SDS011;8302;51.154;4.456;2022-10-04T04:28:20;6.28;;;4.28;;
16385;SDS011;8302;51.154;4.456;2022-10-04T04:30:51;7.75;;;4.38;;
16385;SDS011;8302;51.154;4.456;2022-10-04T04:33:22;7.25;;;4.38;;
16385;SDS011;8302;51.154;4.456;2022-10-04T04:35:57;7.60;;;4.10;;
16385;SDS011;8302;51.154;4.456;2022-10-04T04:38:29;6.60;;;4.30;;
16385;SDS011;8302;51.154;4.456;2022-10-04T04:40:57;6.70;;;3.75;;
16385;SDS011;8302;51.154;4.456;2022-10-04T04:43:33;7.35;;;3.97;;
16385;SDS011;8302;51.154;4.456;2022-10-04T04:46:01;7.60;;;4.78;;
16385;SDS011;8302;51.154;4.456;2022-10-04T04:48:52;8.52;;;3.80;;
16385;SDS011;8302;51.154;4.456;2022-10-04T04:51:25;5.88;;;3.53;;
16385;SDS011;8302;51.154;4.456;2022-10-04T04:53:53;6.22;;;3.65;;
16385;SDS011;8302;51.154;4.456;2022-10-04T04:56:22;6.32;;;3.67;;
16385;SDS011;8302;51.154;4.456;2022-10-04T04:58:52;8.45;;;4.28;;
16385;SDS011;8302;51.154;4.456;2022-10-04T05:01:22;10.23;;;4.35;;
16385;SDS011;8302;51.154;4.456;2022-10-04T05:04:02;10.50;;;4.60;;
16385;SDS011;8302;51.154;4.456;2022-10-04T05:06:31;7.80;;;4.40;;
16385;SDS011;8302;51.154;4.456;2022-10-04T05:08:59;8.20;;;4.82;;
16385;SDS011;8302;51.154;4.456;2022-10-04T05:11:28;6.47;;;4.20;;
16385;SDS011;8302;51.154;4.456;2022-10-04T05:13:57;7.57;;;4.53;;
16385;SDS011;8302;51.154;4.456;2022-10-04T05:16:27;13.57;;;5.32;;
16385;SDS011;8302;51.154;4.456;2022-10-04T05:18:59;7.95;;;4.25;;
16385;SDS011;8302;51.154;4.456;2022-10-04T05:21:30;7.65;;;4.25;;
16385;SDS011;8302;51.154;4.456;2022-10-04T05:24:05;8.15;;;3.97;;
16385;SDS011;8302;51.154;4.456;2022-10-04T05:26:35;9.40;;;4.40;;
16385;SDS011;8302;51.154;4.456;2022-10-04T05:29:06;7.45;;;4.13;;
16385;SDS011;8302;51.154;4.456;2022-10-04T05:31:36;5.55;;;3.83;;
16385;SDS011;8302;51.154;4.456;2022-10-04T05:34:14;4.68;;;3.78;;
16385;SDS011;8302;51.154;4.456;2022-10-04T05:36:48;9.10;;;4.47;;
16385;SDS011;8302;51.154;4.456;2022-10-04T05:39:20;9.52;;;4.72;;
16385;SDS011;8302;51.154;4.456;2022-10-04T05:41:51;8.65;;;4.55;;
16385;SDS011;8302;51.154;4.456;2022-10-04T05:44:23;10.10;;;4.55;;
16385;SDS011;8302;51.154;4.456;2022-10-04T05:46:52;5.55;;;4.35;;
16385;SDS011;8302;51.154;4.456;2022-10-04T05:49:21;10.90;;;4.85;;
16385;SDS011;8302;51.154;4.456;2022-10-04T05:51:53;8.85;;;4.40;;
16385;SDS011;8302;51.154;4.456;2022-10-04T05:54:22;10.32;;;4.63;;
16385;SDS011;8302;51.154;4.456;2022-10-04T05:56:57;9.55;;;4.80;;
16385;SDS011;8302;51.154;4.456;2022-10-04T05:59:31;8.50;;;5.13;;
16385;SDS011;8302;51.154;4.456;2022-10-04T06:02:06;14.77;;;4.72;;
16385;SDS011;8302;51.154;4.456;2022-10-04T06:04:39;7.57;;;4.28;;
16385;SDS011;8302;51.154;4.456;2022-10-04T06:07:16;8.18;;;4.65;;
16385;SDS011;8302;51.154;4.456;2022-10-04T06:09:50;10.75;;;5.07;;
16385;SDS011;8302;51.154;4.456;2022-10-04T06:12:25;9.27;;;4.50;;
16385;SDS011;8302;51.154;4.456;2022-10-04T06:15:15;10.75;;;5.70;;
16385;SDS011;8302;51.154;4.456;2022-10-04T06:17:56;7.55;;;4.78;;
16385;SDS011;8302;51.154;4.456;2022-10-04T06:20:39;8.55;;;4.95;;
16385;SDS011;8302;51.154;4.456;2022-10-04T06:23:13;11.43;;;4.63;;
16385;SDS011;8302;51.154;4.456;2022-10-04T06:25:43;9.68;;;5.22;;
16385;SDS011;8302;51.154;4.456;2022-10-04T06:28:13;11.82;;;5.82;;
16385;SDS011;8302;51.154;4.456;2022-10-04T06:30:46;10.27;;;4.88;;
16385;SDS011;8302;51.154;4.456;2022-10-04T06:33:25;9.73;;;4.57;;
16385;SDS011;8302;51.154;4.456;2022-10-04T06:36:00;8.90;;;4.70;;
16385;SDS011;8302;51.154;4.456;2022-10-04T06:41:26;12.85;;;4.53;;
16385;SDS011;8302;51.154;4.456;2022-10-04T06:44:05;8.77;;;4.82;;
16385;SDS011;8302;51.154;4.456;2022-10-04T06:46:39;9.23;;;5.03;;
16385;SDS011;8302;51.154;4.456;2022-10-04T06:49:23;10.80;;;5.13;;
16385;SDS011;8302;51.154;4.456;2022-10-04T06:54:47;13.32;;;5.38;;
16385;SDS011;8302;51.154;4.456;2022-10-04T06:57:26;7.80;;;4.93;;
16385;SDS011;8302;51.154;4.456;2022-10-04T07:00:04;11.45;;;4.78;;
16385;SDS011;8302;51.154;4.456;2022-10-04T07:02:34;7.20;;;4.15;;
16385;SDS011;8302;51.154;4.456;2022-10-04T07:05:10;5.03;;;2.55;;
16385;SDS011;8302;51.154;4.456;2022-10-04T07:07:40;7.30;;;3.92;;
16385;SDS011;8302;51.154;4.456;2022-10-04T07:10:24;9.73;;;3.85;;
16385;SDS011;8302;51.154;4.456;2022-10-04T07:12:58;8.43;;;3.85;;
16385;SDS011;8302;51.154;4.456;2022-10-04T07:15:30;9.00;;;3.13;;
16385;SDS011;8302;51.154;4.456;2022-10-04T07:18:01;6.03;;;3.35;;
16385;SDS011;8302;51.154;4.456;2022-10-04T07:20:31;9.48;;;4.20;;
16385;SDS011;8302;51.154;4.456;2022-10-04T07:23:01;11.75;;;4.55;;
16385;SDS011;8302;51.154;4.456;2022-10-04T07:25:30;8.15;;;3.80;;
16385;SDS011;8302;51.154;4.456;2022-10-04T07:28:03;5.13;;;3.47;;
16385;SDS011;8302;51.154;4.456;2022-10-04T07:30:46;5.45;;;3.55;;
16385;SDS011;8302;51.154;4.456;2022-10-04T07:33:15;4.50;;;3.22;;
16385;SDS011;8302;51.154;4.456;2022-10-04T07:35:45;5.78;;;3.45;;
16385;SDS011;8302;51.154;4.456;2022-10-04T07:38:15;8.88;;;3.38;;
16385;SDS011;8302;51.154;4.456;2022-10-04T07:40:57;9.50;;;3.78;;
16385;SDS011;8302;51.154;4.456;2022-10-04T07:43:27;6.10;;;3.67;;
16385;SDS011;8302;51.154;4.456;2022-10-04T07:45:59;8.82;;;4.15;;
16385;SDS011;8302;51.154;4.456;2022-10-04T07:48:29;8.52;;;3.42;;
16385;SDS011;8302;51.154;4.456;2022-10-04T07:50:59;8.38;;;3.67;;
16385;SDS011;8302;51.154;4.456;2022-10-04T07:53:29;6.10;;;3.42;;
16385;SDS011;8302;51.154;4.456;2022-10-04T07:55:59;5.00;;;3.00;;
16385;SDS011;8302;51.154;4.456;2022-10-04T07:58:42;10.10;;;3.95;;
16385;SDS011;8302;51.154;4.456;2022-10-04T08:01:17;6.32;;;3.30;;
16385;SDS011;8302;51.154;4.456;2022-10-04T08:04:01;7.05;;;2.80;;
16385;SDS011;8302;51.154;4.456;2022-10-04T08:06:33;3.47;;;1.73;;
16385;SDS011;8302;51.154;4.456;2022-10-04T08:11:46;1.27;;;1.02;;
16385;SDS011;8302;51.154;4.456;2022-10-04T08:14:24;1.05;;;0.90;;
16385;SDS011;8302;51.154;4.456;2022-10-04T08:16:57;2.25;;;1.55;;
16385;SDS011;8302;51.154;4.456;2022-10-04T08:19:31;3.28;;;1.40;;
16385;SDS011;8302;51.154;4.456;2022-10-04T08:22:02;0.80;;;0.60;;
16385;SDS011;8302;51.154;4.456;2022-10-04T08:24:34;5.28;;;3.50;;
16385;SDS011;8302;51.154;4.456;2022-10-04T08:27:13;2.40;;;1.55;;
16385;SDS011;8302;51.154;4.456;2022-10-04T08:29:49;0.90;;;0.90;;
16385;SDS011;8302;51.154;4.456;2022-10-04T08:32:22;0.63;;;0.63;;
16385;SDS011;8302;51.154;4.456;2022-10-04T08:34:56;1.27;;;1.00;;
16385;SDS011;8302;51.154;4.456;2022-10-04T08:37:29;2.17;;;1.60;;
16385;SDS011;8302;51.154;4.456;2022-10-04T08:40:07;8.45;;;3.75;;
16385;SDS011;8302;51.154;4.456;2022-10-04T08:45:35;1.85;;;0.88;;
16385;SDS011;8302;51.154;4.456;2022-10-04T08:51:00;0.73;;;0.60;;
16385;SDS011;8302;51.154;4.456;2022-10-04T08:53:41;4.03;;;2.25;;
16385;SDS011;8302;51.154;4.456;2022-10-04T08:56:14;2.55;;;0.70;;
16385;SDS011;8302;51.154;4.456;2022-10-04T08:59:02;1.25;;;0.95;;
16385;SDS011;8302;51.154;4.456;2022-10-04T09:01:51;2.33;;;1.65;;
16385;SDS011;8302;51.154;4.456;2022-10-04T09:07:23;3.92;;;2.42;;
16385;SDS011;8302;51.154;4.456;2022-10-04T09:10:04;1.10;;;1.00;;
16385;SDS011;8302;51.154;4.456;2022-10-04T09:12:43;2.38;;;1.25;;
16385;SDS011;8302;51.154;4.456;2022-10-04T09:15:20;1.88;;;1.55;;
16385;SDS011;8302;51.154;4.456;2022-10-04T09:17:58;1.77;;;1.17;;
16385;SDS011;8302;51.154;4.456;2022-10-04T09:20:31;0.77;;;0.60;;
16385;SDS011;8302;51.154;4.456;2022-10-04T09:23:11;2.83;;;1.95;;
16385;SDS011;8302;51.154;4.456;2022-10-04T09:25:48;0.88;;;0.80;;
16385;SDS011;8302;51.154;4.456;2022-10-04T09:28:23;2.70;;;1.80;;
16385;SDS011;8302;51.154;4.456;2022-10-04T09:31:06;0.82;;;0.82;;
16385;SDS011;8302;51.154;4.456;2022-10-04T09:33:50;0.82;;;0.82;;
16385;SDS011;8302;51.154;4.456;2022-10-04T09:36:28;2.75;;;1.08;;
16385;SDS011;8302;51.154;4.456;2022-10-04T09:39:13;1.25;;;1.10;;
16385;SDS011;8302;51.154;4.456;2022-10-04T09:47:31;2.35;;;0.60;;
16385;SDS011;8302;51.154;4.456;2022-10-04T09:52:55;1.02;;;0.93;;
16385;SDS011;8302;51.154;4.456;2022-10-04T09:55:33;1.65;;;1.17;;
16385;SDS011;8302;51.154;4.456;2022-10-04T09:58:18;1.50;;;0.82;;
16385;SDS011;8302;51.154;4.456;2022-10-04T10:00:55;2.53;;;0.57;;
16385;SDS011;8302;51.154;4.456;2022-10-04T10:06:30;3.92;;;1.17;;
16385;SDS011;8302;51.154;4.456;2022-10-04T10:09:07;1.25;;;1.05;;
16385;SDS011;8302;51.154;4.456;2022-10-04T10:11:41;5.82;;;1.20;;
16385;SDS011;8302;51.154;4.456;2022-10-04T10:17:12;5.75;;;2.70;;
16385;SDS011;8302;51.154;4.456;2022-10-04T10:19:51;1.08;;;0.90;;
16385;SDS011;8302;51.154;4.456;2022-10-04T10:22:28;5.15;;;3.42;;
16385;SDS011;8302;51.154;4.456;2022-10-04T10:25:13;1.65;;;1.40;;
16385;SDS011;8302;51.154;4.456;2022-10-04T10:30:33;4.95;;;1.42;;
16385;SDS011;8302;51.154;4.456;2022-10-04T10:36:14;9.68;;;2.28;;
16385;SDS011;8302;51.154;4.456;2022-10-04T10:41:38;5.30;;;2.35;;
16385;SDS011;8302;51.154;4.456;2022-10-04T10:47:06;1.13;;;0.82;;
16385;SDS011;8302;51.154;4.456;2022-10-04T10:49:40;1.35;;;1.25;;
16385;SDS011;8302;51.154;4.456;2022-10-04T10:54:57;6.47;;;2.63;;
16385;SDS011;8302;51.154;4.456;2022-10-04T10:57:36;3.35;;;1.85;;
16385;SDS011;8302;51.154;4.456;2022-10-04T11:00:16;0.57;;;0.57;;
16385;SDS011;8302;51.154;4.456;2022-10-04T11:08:33;4.05;;;1.70;;
16385;SDS011;8302;51.154;4.456;2022-10-04T11:11:06;1.85;;;0.50;;
16385;SDS011;8302;51.154;4.456;2022-10-04T11:16:31;1.33;;;1.10;;
16385;SDS011;8302;51.154;4.456;2022-10-04T11:19:12;1.95;;;1.60;;
16385;SDS011;8302;51.154;4.456;2022-10-04T11:24:40;0.55;;;0.40;;
16385;SDS011;8302;51.154;4.456;2022-10-04T11:27:24;5.38;;;1.65;;
16385;SDS011;8302;51.154;4.456;2022-10-04T11:29:57;1.65;;;0.80;;
16385;SDS011;8302;51.154;4.456;2022-10-04T11:35:33;3.88;;;1.55;;
16385;SDS011;8302;51.154;4.456;2022-10-04T11:38:08;2.35;;;1.42;;
16385;SDS011;8302;51.154;4.456;2022-10-04T11:40:43;6.32;;;2.58;;
16385;SDS011;8302;51.154;4.456;2022-10-04T11:43:24;4.10;;;2.38;;
16385;SDS011;8302;51.154;4.456;2022-10-04T11:46:07;4.50;;;2.65;;
16385;SDS011;8302;51.154;4.456;2022-10-04T11:48:42;3.83;;;2.22;;
16385;SDS011;8302;51.154;4.456;2022-10-04T11:54:05;3.72;;;2.00;;
16385;SDS011;8302;51.154;4.456;2022-10-04T11:56:41;6.63;;;1.90;;
16385;SDS011;8302;51.154;4.456;2022-10-04T11:59:17;2.60;;;1.38;;
16385;SDS011;8302;51.154;4.456;2022-10-04T12:04:46;3.38;;;1.58;;
16385;SDS011;8302;51.154;4.456;2022-10-04T12:10:13;3.60;;;2.67;;
16385;SDS011;8302;51.154;4.456;2022-10-04T12:12:53;1.50;;;1.40;;
16385;SDS011;8302;51.154;4.456;2022-10-04T12:15:37;5.00;;;2.70;;
16385;SDS011;8302;51.154;4.456;2022-10-04T12:18:26;2.67;;;1.65;;
16385;SDS011;8302;51.154;4.456;2022-10-04T12:21:10;3.97;;;2.47;;
16385;SDS011;8302;51.154;4.456;2022-10-04T12:23:51;6.20;;;2.15;;
16385;SDS011;8302;51.154;4.456;2022-10-04T12:26:30;6.18;;;2.55;;
16385;SDS011;8302;51.154;4.456;2022-10-04T12:29:22;6.13;;;2.80;;
16385;SDS011;8302;51.154;4.456;2022-10-04T12:31:53;4.38;;;2.47;;
16385;SDS011;8302;51.154;4.456;2022-10-04T12:34:25;0.57;;;0.55;;
16385;SDS011;8302;51.154;4.456;2022-10-04T12:37:01;2.08;;;1.13;;
16385;SDS011;8302;51.154;4.456;2022-10-04T12:39:35;5.07;;;2.25;;
16385;SDS011;8302;51.154;4.456;2022-10-04T12:42:09;5.25;;;1.92;;
16385;SDS011;8302;51.154;4.456;2022-10-04T12:44:41;4.22;;;1.90;;
16385;SDS011;8302;51.154;4.456;2022-10-04T12:47:26;1.55;;;1.25;;
16385;SDS011;8302;51.154;4.456;2022-10-04T12:49:59;2.35;;;0.80;;
16385;SDS011;8302;51.154;4.456;2022-10-04T12:52:31;3.15;;;1.48;;
16385;SDS011;8302;51.154;4.456;2022-10-04T12:55:08;4.50;;;1.13;;
16385;SDS011;8302;51.154;4.456;2022-10-04T12:57:43;3.30;;;2.05;;
16385;SDS011;8302;51.154;4.456;2022-10-04T13:00:15;3.83;;;2.35;;
16385;SDS011;8302;51.154;4.456;2022-10-04T13:02:51;6.38;;;1.50;;
16385;SDS011;8302;51.154;4.456;2022-10-04T13:05:21;7.10;;;1.98;;
16385;SDS011;8302;51.154;4.456;2022-10-04T13:07:57;3.42;;;1.77;;
16385;SDS011;8302;51.154;4.456;2022-10-04T13:10:30;3.30;;;2.38;;
16385;SDS011;8302;51.154;4.456;2022-10-04T13:15:51;8.95;;;3.33;;
16385;SDS011;8302;51.154;4.456;2022-10-04T13:18:45;7.65;;;2.60;;
16385;SDS011;8302;51.154;4.456;2022-10-04T13:21:19;3.17;;;1.98;;
16385;SDS011;8302;51.154;4.456;2022-10-04T13:23:52;4.72;;;2.53;;
16385;SDS011;8302;51.154;4.456;2022-10-04T13:26:22;5.75;;;2.53;;
16385;SDS011;8302;51.154;4.456;2022-10-04T13:28:54;2.53;;;1.48;;
16385;SDS011;8302;51.154;4.456;2022-10-04T13:31:31;3.28;;;1.80;;
16385;SDS011;8302;51.154;4.456;2022-10-04T13:34:04;4.25;;;2.13;;
16385;SDS011;8302;51.154;4.456;2022-10-04T13:36:41;3.58;;;2.10;;
16385;SDS011;8302;51.154;4.456;2022-10-04T13:39:15;0.98;;;0.98;;
16385;SDS011;8302;51.154;4.456;2022-10-04T13:44:46;4.38;;;1.90;;
16385;SDS011;8302;51.154;4.456;2022-10-04T13:47:27;3.97;;;2.13;;
16385;SDS011;8302;51.154;4.456;2022-10-04T13:50:01;5.75;;;1.25;;
16385;SDS011;8302;51.154;4.456;2022-10-04T13:52:35;0.77;;;0.68;;
16385;SDS011;8302;51.154;4.456;2022-10-04T13:55:25;0.98;;;0.68;;
16385;SDS011;8302;51.154;4.456;2022-10-04T13:58:16;4.60;;;2.20;;
16385;SDS011;8302;51.154;4.456;2022-10-04T14:03:37;2.80;;;1.45;;
16385;SDS011;8302;51.154;4.456;2022-10-04T14:06:26;1.73;;;1.10;;
16385;SDS011;8302;51.154;4.456;2022-10-04T14:14:46;2.25;;;1.67;;
16385;SDS011;8302;51.154;4.456;2022-10-04T14:17:26;5.40;;;2.60;;
16385;SDS011;8302;51.154;4.456;2022-10-04T14:25:42;1.65;;;0.73;;
16385;SDS011;8302;51.154;4.456;2022-10-04T14:28:25;2.17;;;1.40;;
16385;SDS011;8302;51.154;4.456;2022-10-04T14:31:02;1.45;;;0.75;;
16385;SDS011;8302;51.154;4.456;2022-10-04T14:36:32;3.70;;;1.30;;
16385;SDS011;8302;51.154;4.456;2022-10-04T14:39:16;3.20;;;1.50;;
16385;SDS011;8302;51.154;4.456;2022-10-04T14:47:30;3.03;;;1.38;;
16385;SDS011;8302;51.154;4.456;2022-10-04T14:50:16;1.75;;;1.13;;
16385;SDS011;8302;51.154;4.456;2022-10-04T14:52:49;4.53;;;1.63;;
16385;SDS011;8302;51.154;4.456;2022-10-04T14:55:25;4.30;;;1.77;;
16385;SDS011;8302;51.154;4.456;2022-10-04T14:58:00;4.20;;;1.55;;
16385;SDS011;8302;51.154;4.456;2022-10-04T15:00:31;2.47;;;0.93;;
16385;SDS011;8302;51.154;4.456;2022-10-04T15:03:10;2.85;;;1.77;;
16385;SDS011;8302;51.154;4.456;2022-10-04T15:05:41;4.60;;;1.60;;
16385;SDS011;8302;51.154;4.456;2022-10-04T15:10:53;2.70;;;1.77;;
16385;SDS011;8302;51.154;4.456;2022-10-04T15:13:23;1.42;;;1.10;;
16385;SDS011;8302;51.154;4.456;2022-10-04T15:15:55;3.90;;;1.90;;
16385;SDS011;8302;51.154;4.456;2022-10-04T15:18:35;3.92;;;1.90;;
16385;SDS011;8302;51.154;4.456;2022-10-04T15:21:09;2.00;;;0.98;;
16385;SDS011;8302;51.154;4.456;2022-10-04T15:23:38;4.70;;;1.90;;
16385;SDS011;8302;51.154;4.456;2022-10-04T15:26:11;3.88;;;1.13;;
16385;SDS011;8302;51.154;4.456;2022-10-04T15:29:05;3.45;;;2.22;;
16385;SDS011;8302;51.154;4.456;2022-10-04T15:31:49;4.90;;;2.08;;
16385;SDS011;8302;51.154;4.456;2022-10-04T15:34:23;2.97;;;2.08;;
16385;SDS011;8302;51.154;4.456;2022-10-04T15:36:58;2.60;;;1.80;;
16385;SDS011;8302;51.154;4.456;2022-10-04T15:39:33;2.90;;;1.80;;
16385;SDS011;8302;51.154;4.456;2022-10-04T15:42:06;3.42;;;2.15;;
16385;SDS011;8302;51.154;4.456;2022-10-04T15:44:58;2.45;;;1.92;;
16385;SDS011;8302;51.154;4.456;2022-10-04T15:47:27;2.85;;;1.98;;
16385;SDS011;8302;51.154;4.456;2022-10-04T15:50:09;2.08;;;1.40;;
16385;SDS011;8302;51.154;4.456;2022-10-04T15:53:01;3.25;;;1.83;;
16385;SDS011;8302;51.154;4.456;2022-10-04T15:58:24;4.07;;;2.00;;
16385;SDS011;8302;51.154;4.456;2022-10-04T16:01:00;2.13;;;1.75;;
16385;SDS011;8302;51.154;4.456;2022-10-04T16:03:37;4.20;;;1.30;;
16385;SDS011;8302;51.154;4.456;2022-10-04T16:06:08;3.60;;;0.90;;
16385;SDS011;8302;51.154;4.456;2022-10-04T16:11:34;0.63;;;0.52;;
16385;SDS011;8302;51.154;4.456;2022-10-04T16:14:16;0.68;;;0.68;;
16385;SDS011;8302;51.154;4.456;2022-10-04T16:16:49;2.35;;;1.13;;
16385;SDS011;8302;51.154;4.456;2022-10-04T16:19:25;1.13;;;0.80;;
16385;SDS011;8302;51.154;4.456;2022-10-04T16:22:08;2.05;;;1.10;;
16385;SDS011;8302;51.154;4.456;2022-10-04T16:24:45;2.40;;;1.00;;
16385;SDS011;8302;51.154;4.456;2022-10-04T16:27:32;1.20;;;0.93;;
16385;SDS011;8302;51.154;4.456;2022-10-04T16:30:04;3.20;;;0.95;;
16385;SDS011;8302;51.154;4.456;2022-10-04T16:33:00;0.85;;;0.65;;
16385;SDS011;8302;51.154;4.456;2022-10-04T16:35:31;0.80;;;0.80;;
16385;SDS011;8302;51.154;4.456;2022-10-04T16:38:12;0.85;;;0.85;;
16385;SDS011;8302;51.154;4.456;2022-10-04T16:40:46;0.95;;;0.90;;
16385;SDS011;8302;51.154;4.456;2022-10-04T16:43:24;0.90;;;0.80;;
16385;SDS011;8302;51.154;4.456;2022-10-04T16:46:04;1.25;;;0.93;;
16385;SDS011;8302;51.154;4.456;2022-10-04T16:48:35;1.13;;;0.70;;
16385;SDS011;8302;51.154;4.456;2022-10-04T16:51:12;0.55;;;0.50;;
16385;SDS011;8302;51.154;4.456;2022-10-04T16:53:48;0.75;;;0.75;;
16385;SDS011;8302;51.154;4.456;2022-10-04T16:56:17;1.40;;;0.98;;
16385;SDS011;8302;51.154;4.456;2022-10-04T16:58:50;4.03;;;1.73;;
16385;SDS011;8302;51.154;4.456;2022-10-04T17:01:20;2.55;;;1.38;;
16385;SDS011;8302;51.154;4.456;2022-10-04T17:03:51;3.28;;;1.55;;
16385;SDS011;8302;51.154;4.456;2022-10-04T17:06:24;3.08;;;1.42;;
16385;SDS011;8302;51.154;4.456;2022-10-04T17:09:04;3.42;;;2.10;;
16385;SDS011;8302;51.154;4.456;2022-10-04T17:11:39;6.78;;;2.00;;
16385;SDS011;8302;51.154;4.456;2022-10-04T17:17:03;3.20;;;1.90;;
16385;SDS011;8302;51.154;4.456;2022-10-04T17:19:38;3.22;;;1.95;;
16385;SDS011;8302;51.154;4.456;2022-10-04T17:22:14;4.30;;;2.03;;
16385;SDS011;8302;51.154;4.456;2022-10-04T17:24:53;4.85;;;2.28;;
16385;SDS011;8302;51.154;4.456;2022-10-04T17:27:32;3.20;;;2.08;;
16385;SDS011;8302;51.154;4.456;2022-10-04T17:30:09;3.17;;;2.25;;
16385;SDS011;8302;51.154;4.456;2022-10-04T17:32:40;4.75;;;2.05;;
16385;SDS011;8302;51.154;4.456;2022-10-04T17:35:14;3.47;;;2.20;;
16385;SDS011;8302;51.154;4.456;2022-10-04T17:37:44;3.08;;;2.15;;